sensor_id;sensor_type;location;lat;lon;timestamp;pressure;altitude;pressure_sealevel;temperature
34125;BMP280;20110;53.120;5.786;2023-07-30T00:00:19;100755.03;;;22.93
34125;BMP280;20110;53.120;5.786;2023-07-30T00:02:45;100737.94;;;22.77
34125;BMP280;20110;53.120;5.786;2023-07-30T00:05:10;100767.84;;;22.93
34125;BMP280;20110;53.120;5.786;2023-07-30T00:07:36;100762.63;;;22.97
34125;BMP280;20110;53.120;5.786;2023-07-30T00:10:02;100764.16;;;23.00
34125;BMP280;20110;53.120;5.786;2023-07-30T00:12:28;100758.91;;;23.04
34125;BMP280;20110;53.120;5.786;2023-07-30T00:14:54;100748.63;;;23.00
34125;BMP280;20110;53.120;5.786;2023-07-30T00:17:19;100757.31;;;23.13
34125;BMP280;20110;53.120;5.786;2023-07-30T00:19:45;100764.94;;;23.16
34125;BMP280;20110;53.120;5.786;2023-07-30T00:22:11;100742.75;;;23.06
34125;BMP280;20110;53.120;5.786;2023-07-30T00:24:37;100755.19;;;23.25
34125;BMP280;20110;53.120;5.786;2023-07-30T00:27:03;100760.91;;;23.31
34125;BMP280;20110;53.120;5.786;2023-07-30T00:29:28;100762.41;;;23.34
34125;BMP280;20110;53.120;5.786;2023-07-30T00:31:54;100768.53;;;23.34
34125;BMP280;20110;53.120;5.786;2023-07-30T00:34:20;100748.28;;;23.22
34125;BMP280;20110;53.120;5.786;2023-07-30T00:36:46;100728.00;;;23.09
34125;BMP280;20110;53.120;5.786;2023-07-30T00:39:12;100724.59;;;23.09
34125;BMP280;20110;53.120;5.786;2023-07-30T00:41:37;100767.69;;;23.45
34125;BMP280;20110;53.120;5.786;2023-07-30T00:44:03;100765.16;;;23.49
34125;BMP280;20110;53.120;5.786;2023-07-30T00:46:30;100763.16;;;23.50
34125;BMP280;20110;53.120;5.786;2023-07-30T00:48:56;100761.63;;;23.61
34125;BMP280;20110;53.120;5.786;2023-07-30T00:51:23;100766.66;;;23.66
34125;BMP280;20110;53.120;5.786;2023-07-30T00:53:49;100730.16;;;23.40
34125;BMP280;20110;53.120;5.786;2023-07-30T00:56:16;100771.03;;;23.73
34125;BMP280;20110;53.120;5.786;2023-07-30T00:58:43;100760.50;;;23.66
34125;BMP280;20110;53.120;5.786;2023-07-30T01:01:11;100743.66;;;23.54
34125;BMP280;20110;53.120;5.786;2023-07-30T01:03:37;100764.50;;;23.78
34125;BMP280;20110;53.120;5.786;2023-07-30T01:06:05;100725.28;;;23.52
34125;BMP280;20110;53.120;5.786;2023-07-30T01:08:31;100681.63;;;23.30
34125;BMP280;20110;53.120;5.786;2023-07-30T01:10:58;100760.34;;;23.91
34125;BMP280;20110;53.120;5.786;2023-07-30T01:13:24;100761.38;;;24.00
34125;BMP280;20110;53.120;5.786;2023-07-30T01:15:50;100778.81;;;24.10
34125;BMP280;20110;53.120;5.786;2023-07-30T01:18:16;100769.28;;;24.09
34125;BMP280;20110;53.120;5.786;2023-07-30T01:20:42;100754.03;;;24.02
34125;BMP280;20110;53.120;5.786;2023-07-30T01:23:08;100766.38;;;24.05
34125;BMP280;20110;53.120;5.786;2023-07-30T01:25:36;100774.03;;;23.95
34125;BMP280;20110;53.120;5.786;2023-07-30T01:28:05;100775.72;;;23.86
34125;BMP280;20110;53.120;5.786;2023-07-30T01:30:41;100753.59;;;23.63
34125;BMP280;20110;53.120;5.786;2023-07-30T01:33:10;100742.19;;;23.51
34125;BMP280;20110;53.120;5.786;2023-07-30T01:35:38;100774.44;;;23.74
34125;BMP280;20110;53.120;5.786;2023-07-30T01:38:04;100768.13;;;23.69
34125;BMP280;20110;53.120;5.786;2023-07-30T01:40:32;100740.59;;;23.45
34125;BMP280;20110;53.120;5.786;2023-07-30T01:42:58;100745.78;;;23.55
34125;BMP280;20110;53.120;5.786;2023-07-30T01:45:25;100736.38;;;23.42
34125;BMP280;20110;53.120;5.786;2023-07-30T01:47:50;100738.28;;;23.40
34125;BMP280;20110;53.120;5.786;2023-07-30T01:50:16;100764.16;;;23.57
34125;BMP280;20110;53.120;5.786;2023-07-30T01:52:42;100687.72;;;23.01
34125;BMP280;20110;53.120;5.786;2023-07-30T01:55:08;100778.69;;;23.63
34125;BMP280;20110;53.120;5.786;2023-07-30T01:57:34;100768.44;;;23.62
34125;BMP280;20110;53.120;5.786;2023-07-30T02:00:00;100745.81;;;23.41
34125;BMP280;20110;53.120;5.786;2023-07-30T02:02:26;100773.06;;;23.59
34125;BMP280;20110;53.120;5.786;2023-07-30T02:04:52;100758.25;;;23.46
34125;BMP280;20110;53.120;5.786;2023-07-30T02:07:17;100748.53;;;23.41
34125;BMP280;20110;53.120;5.786;2023-07-30T02:09:43;100766.41;;;23.46
34125;BMP280;20110;53.120;5.786;2023-07-30T02:12:09;100762.28;;;23.45
34125;BMP280;20110;53.120;5.786;2023-07-30T02:14:35;100772.94;;;23.41
34125;BMP280;20110;53.120;5.786;2023-07-30T02:17:01;100777.72;;;23.43
34125;BMP280;20110;53.120;5.786;2023-07-30T02:19:26;100762.41;;;23.34
34125;BMP280;20110;53.120;5.786;2023-07-30T02:21:52;100743.44;;;23.20
34125;BMP280;20110;53.120;5.786;2023-07-30T02:24:18;100729.78;;;23.18
34125;BMP280;20110;53.120;5.786;2023-07-30T02:26:44;100754.28;;;23.34
34125;BMP280;20110;53.120;5.786;2023-07-30T02:29:10;100754.38;;;23.36
34125;BMP280;20110;53.120;5.786;2023-07-30T02:31:35;100676.50;;;22.80
34125;BMP280;20110;53.120;5.786;2023-07-30T02:34:01;100750.94;;;23.35
34125;BMP280;20110;53.120;5.786;2023-07-30T02:36:27;100761.09;;;23.35
34125;BMP280;20110;53.120;5.786;2023-07-30T02:38:53;100679.59;;;22.74
34125;BMP280;20110;53.120;5.786;2023-07-30T02:41:18;100734.94;;;23.12
34125;BMP280;20110;53.120;5.786;2023-07-30T02:43:44;100744.44;;;23.27
34125;BMP280;20110;53.120;5.786;2023-07-30T02:46:10;100742.03;;;23.19
34125;BMP280;20110;53.120;5.786;2023-07-30T02:48:36;100759.00;;;23.33
34125;BMP280;20110;53.120;5.786;2023-07-30T02:51:02;100758.50;;;23.23
34125;BMP280;20110;53.120;5.786;2023-07-30T02:53:27;100771.53;;;23.27
34125;BMP280;20110;53.120;5.786;2023-07-30T02:55:54;100770.91;;;23.28
34125;BMP280;20110;53.120;5.786;2023-07-30T02:58:19;100742.84;;;23.08
34125;BMP280;20110;53.120;5.786;2023-07-30T03:00:45;100743.56;;;23.09
34125;BMP280;20110;53.120;5.786;2023-07-30T03:03:11;100765.13;;;23.20
34125;BMP280;20110;53.120;5.786;2023-07-30T03:05:37;100741.28;;;23.03
34125;BMP280;20110;53.120;5.786;2023-07-30T03:08:03;100767.72;;;23.18
34125;BMP280;20110;53.120;5.786;2023-07-30T03:10:29;100741.66;;;22.97
34125;BMP280;20110;53.120;5.786;2023-07-30T03:12:55;100742.97;;;22.96
34125;BMP280;20110;53.120;5.786;2023-07-30T03:15:20;100768.03;;;23.11
34125;BMP280;20110;53.120;5.786;2023-07-30T03:17:46;100727.34;;;22.81
34125;BMP280;20110;53.120;5.786;2023-07-30T03:20:12;100743.25;;;22.89
34125;BMP280;20110;53.120;5.786;2023-07-30T03:22:38;100749.50;;;22.91
34125;BMP280;20110;53.120;5.786;2023-07-30T03:25:04;100755.09;;;22.95
34125;BMP280;20110;53.120;5.786;2023-07-30T03:27:30;100774.47;;;23.03
34125;BMP280;20110;53.120;5.786;2023-07-30T03:29:55;100771.78;;;23.03
34125;BMP280;20110;53.120;5.786;2023-07-30T03:32:21;100740.09;;;22.79
34125;BMP280;20110;53.120;5.786;2023-07-30T03:34:47;100740.78;;;22.79
34125;BMP280;20110;53.120;5.786;2023-07-30T03:37:13;100765.53;;;22.87
34125;BMP280;20110;53.120;5.786;2023-07-30T03:39:39;100770.44;;;22.91
34125;BMP280;20110;53.120;5.786;2023-07-30T03:42:05;100781.47;;;22.95
34125;BMP280;20110;53.120;5.786;2023-07-30T03:44:30;100758.81;;;22.88
34125;BMP280;20110;53.120;5.786;2023-07-30T03:46:56;100740.28;;;22.69
34125;BMP280;20110;53.120;5.786;2023-07-30T03:49:22;100745.34;;;22.77
34125;BMP280;20110;53.120;5.786;2023-07-30T03:51:48;100713.56;;;22.63
34125;BMP280;20110;53.120;5.786;2023-07-30T03:54:14;100764.63;;;22.96
34125;BMP280;20110;53.120;5.786;2023-07-30T03:56:39;100780.06;;;23.08
34125;BMP280;20110;53.120;5.786;2023-07-30T03:59:05;100759.13;;;22.94
34125;BMP280;20110;53.120;5.786;2023-07-30T04:01:31;100771.34;;;23.09
34125;BMP280;20110;53.120;5.786;2023-07-30T04:03:57;100755.19;;;22.97
34125;BMP280;20110;53.120;5.786;2023-07-30T04:06:23;100770.84;;;23.13
34125;BMP280;20110;53.120;5.786;2023-07-30T04:08:48;100776.19;;;23.24
34125;BMP280;20110;53.120;5.786;2023-07-30T04:11:14;100782.28;;;23.25
34125;BMP280;20110;53.120;5.786;2023-07-30T04:13:41;100780.28;;;23.25
34125;BMP280;20110;53.120;5.786;2023-07-30T04:16:07;100654.94;;;22.41
34125;BMP280;20110;53.120;5.786;2023-07-30T04:18:33;100761.59;;;23.18
34125;BMP280;20110;53.120;5.786;2023-07-30T04:20:59;100737.38;;;22.92
34125;BMP280;20110;53.120;5.786;2023-07-30T04:23:25;100757.09;;;23.09
34125;BMP280;20110;53.120;5.786;2023-07-30T04:25:51;100764.31;;;23.18
34125;BMP280;20110;53.120;5.786;2023-07-30T04:28:17;100782.75;;;23.35
34125;BMP280;20110;53.120;5.786;2023-07-30T04:30:44;100746.06;;;23.18
34125;BMP280;20110;53.120;5.786;2023-07-30T04:33:12;100757.47;;;23.30
34125;BMP280;20110;53.120;5.786;2023-07-30T04:35:40;100777.03;;;23.42
34125;BMP280;20110;53.120;5.786;2023-07-30T04:38:06;100746.44;;;23.26
34125;BMP280;20110;53.120;5.786;2023-07-30T04:40:32;100777.94;;;23.47
34125;BMP280;20110;53.120;5.786;2023-07-30T04:42:58;100755.47;;;23.31
34125;BMP280;20110;53.120;5.786;2023-07-30T04:45:23;100781.25;;;23.45
34125;BMP280;20110;53.120;5.786;2023-07-30T04:47:49;100779.44;;;23.50
34125;BMP280;20110;53.120;5.786;2023-07-30T04:50:15;100763.69;;;23.46
34125;BMP280;20110;53.120;5.786;2023-07-30T04:52:41;100734.31;;;23.27
34125;BMP280;20110;53.120;5.786;2023-07-30T04:55:07;100746.41;;;23.40
34125;BMP280;20110;53.120;5.786;2023-07-30T04:57:33;100755.81;;;23.53
34125;BMP280;20110;53.120;5.786;2023-07-30T04:59:59;100760.41;;;23.64
34125;BMP280;20110;53.120;5.786;2023-07-30T05:02:25;100792.69;;;23.87
34125;BMP280;20110;53.120;5.786;2023-07-30T05:04:50;100793.66;;;23.93
34125;BMP280;20110;53.120;5.786;2023-07-30T05:07:16;100780.69;;;23.92
34125;BMP280;20110;53.120;5.786;2023-07-30T05:09:42;100767.75;;;23.90
34125;BMP280;20110;53.120;5.786;2023-07-30T05:12:08;100785.34;;;24.05
34125;BMP280;20110;53.120;5.786;2023-07-30T05:14:34;100768.94;;;24.01
34125;BMP280;20110;53.120;5.786;2023-07-30T05:17:00;100781.88;;;24.18
34125;BMP280;20110;53.120;5.786;2023-07-30T05:19:25;100769.19;;;24.07
34125;BMP280;20110;53.120;5.786;2023-07-30T05:21:53;100793.28;;;24.15
34125;BMP280;20110;53.120;5.786;2023-07-30T05:24:18;100792.72;;;24.18
34125;BMP280;20110;53.120;5.786;2023-07-30T05:26:44;100782.13;;;24.09
34125;BMP280;20110;53.120;5.786;2023-07-30T05:29:10;100792.50;;;24.28
34125;BMP280;20110;53.120;5.786;2023-07-30T05:31:36;100801.25;;;24.26
34125;BMP280;20110;53.120;5.786;2023-07-30T05:34:02;100787.50;;;24.22
34125;BMP280;20110;53.120;5.786;2023-07-30T05:36:28;100758.22;;;24.05
34125;BMP280;20110;53.120;5.786;2023-07-30T05:38:53;100789.69;;;24.42
34125;BMP280;20110;53.120;5.786;2023-07-30T05:41:19;100771.59;;;24.30
34125;BMP280;20110;53.120;5.786;2023-07-30T05:43:46;100756.50;;;24.12
34125;BMP280;20110;53.120;5.786;2023-07-30T05:46:13;100750.09;;;24.05
34125;BMP280;20110;53.120;5.786;2023-07-30T05:48:39;100712.59;;;23.70
34125;BMP280;20110;53.120;5.786;2023-07-30T05:51:04;100800.91;;;24.34
34125;BMP280;20110;53.120;5.786;2023-07-30T05:53:30;100706.88;;;23.78
34125;BMP280;20110;53.120;5.786;2023-07-30T05:55:56;100771.25;;;24.54
34125;BMP280;20110;53.120;5.786;2023-07-30T05:58:22;100787.41;;;24.67
34125;BMP280;20110;53.120;5.786;2023-07-30T06:00:48;100791.59;;;24.70
34125;BMP280;20110;53.120;5.786;2023-07-30T06:03:14;100780.06;;;24.54
34125;BMP280;20110;53.120;5.786;2023-07-30T06:05:41;100804.66;;;24.58
34125;BMP280;20110;53.120;5.786;2023-07-30T06:08:08;100796.09;;;24.48
34125;BMP280;20110;53.120;5.786;2023-07-30T06:10:38;100810.63;;;24.55
34125;BMP280;20110;53.120;5.786;2023-07-30T06:13:06;100824.91;;;24.55
34125;BMP280;20110;53.120;5.786;2023-07-30T06:15:32;100765.00;;;24.20
34125;BMP280;20110;53.120;5.786;2023-07-30T06:18:00;100816.69;;;24.53
34125;BMP280;20110;53.120;5.786;2023-07-30T06:20:26;100777.28;;;24.21
34125;BMP280;20110;53.120;5.786;2023-07-30T06:22:52;100812.63;;;24.54
34125;BMP280;20110;53.120;5.786;2023-07-30T06:25:18;100804.59;;;24.56
34125;BMP280;20110;53.120;5.786;2023-07-30T06:27:44;100805.03;;;24.51
34125;BMP280;20110;53.120;5.786;2023-07-30T06:30:10;100786.72;;;24.35
34125;BMP280;20110;53.120;5.786;2023-07-30T06:32:36;100810.03;;;24.56
34125;BMP280;20110;53.120;5.786;2023-07-30T06:35:03;100814.81;;;24.58
34125;BMP280;20110;53.120;5.786;2023-07-30T06:37:29;100786.19;;;24.55
34125;BMP280;20110;53.120;5.786;2023-07-30T06:39:54;100805.81;;;24.69
34125;BMP280;20110;53.120;5.786;2023-07-30T06:42:20;100807.88;;;24.70
34125;BMP280;20110;53.120;5.786;2023-07-30T06:44:46;100774.81;;;24.43
34125;BMP280;20110;53.120;5.786;2023-07-30T06:47:12;100813.72;;;24.63
34125;BMP280;20110;53.120;5.786;2023-07-30T06:49:38;100807.47;;;24.60
34125;BMP280;20110;53.120;5.786;2023-07-30T06:52:04;100808.53;;;24.69
34125;BMP280;20110;53.120;5.786;2023-07-30T06:54:30;100803.31;;;24.91
34125;BMP280;20110;53.120;5.786;2023-07-30T06:56:55;100781.78;;;25.12
34125;BMP280;20110;53.120;5.786;2023-07-30T06:59:21;100768.38;;;25.34
34125;BMP280;20110;53.120;5.786;2023-07-30T07:01:47;100794.97;;;25.53
34125;BMP280;20110;53.120;5.786;2023-07-30T07:04:13;100809.91;;;25.70
34125;BMP280;20110;53.120;5.786;2023-07-30T07:06:39;100784.88;;;25.74
34125;BMP280;20110;53.120;5.786;2023-07-30T07:09:05;100809.09;;;25.85
34125;BMP280;20110;53.120;5.786;2023-07-30T07:11:31;100803.91;;;25.91
34125;BMP280;20110;53.120;5.786;2023-07-30T07:13:57;100792.94;;;25.89
34125;BMP280;20110;53.120;5.786;2023-07-30T07:16:22;100816.53;;;26.40
34125;BMP280;20110;53.120;5.786;2023-07-30T07:18:48;100801.47;;;26.37
34125;BMP280;20110;53.120;5.786;2023-07-30T07:21:15;100801.56;;;26.21
34125;BMP280;20110;53.120;5.786;2023-07-30T07:23:40;100830.31;;;25.89
34125;BMP280;20110;53.120;5.786;2023-07-30T07:26:06;100823.13;;;25.78
34125;BMP280;20110;53.120;5.786;2023-07-30T07:28:32;100811.63;;;25.61
34125;BMP280;20110;53.120;5.786;2023-07-30T07:30:58;100820.59;;;25.66
34125;BMP280;20110;53.120;5.786;2023-07-30T07:33:24;100827.00;;;25.73
34125;BMP280;20110;53.120;5.786;2023-07-30T07:35:50;100790.00;;;25.48
34125;BMP280;20110;53.120;5.786;2023-07-30T07:38:15;100816.28;;;25.77
34125;BMP280;20110;53.120;5.786;2023-07-30T07:40:41;100794.25;;;25.53
34125;BMP280;20110;53.120;5.786;2023-07-30T07:43:08;100811.69;;;25.81
34125;BMP280;20110;53.120;5.786;2023-07-30T07:45:34;100829.97;;;26.16
34125;BMP280;20110;53.120;5.786;2023-07-30T07:48:00;100800.22;;;26.02
34125;BMP280;20110;53.120;5.786;2023-07-30T07:50:26;100826.94;;;26.45
34125;BMP280;20110;53.120;5.786;2023-07-30T07:52:52;100806.56;;;26.09
34125;BMP280;20110;53.120;5.786;2023-07-30T07:55:18;100843.22;;;26.24
34125;BMP280;20110;53.120;5.786;2023-07-30T07:57:44;100806.13;;;25.97
34125;BMP280;20110;53.120;5.786;2023-07-30T08:00:10;100833.72;;;26.07
34125;BMP280;20110;53.120;5.786;2023-07-30T08:02:36;100845.13;;;26.21
34125;BMP280;20110;53.120;5.786;2023-07-30T08:05:02;100814.53;;;26.03
34125;BMP280;20110;53.120;5.786;2023-07-30T08:07:28;100814.03;;;25.71
34125;BMP280;20110;53.120;5.786;2023-07-30T08:09:54;100840.13;;;25.60
34125;BMP280;20110;53.120;5.786;2023-07-30T08:12:20;100850.34;;;25.44
34125;BMP280;20110;53.120;5.786;2023-07-30T08:14:46;100853.56;;;25.23
34125;BMP280;20110;53.120;5.786;2023-07-30T08:17:12;100858.34;;;24.91
34125;BMP280;20110;53.120;5.786;2023-07-30T08:19:38;100860.00;;;24.35
34125;BMP280;20110;53.120;5.786;2023-07-30T08:22:04;100834.56;;;23.55
34125;BMP280;20110;53.120;5.786;2023-07-30T08:24:29;100814.47;;;22.91
34125;BMP280;20110;53.120;5.786;2023-07-30T08:26:55;100874.34;;;22.97
34125;BMP280;20110;53.120;5.786;2023-07-30T08:29:21;100859.28;;;22.81
34125;BMP280;20110;53.120;5.786;2023-07-30T08:31:47;100856.31;;;23.02
34125;BMP280;20110;53.120;5.786;2023-07-30T08:34:14;100762.41;;;22.66
34125;BMP280;20110;53.120;5.786;2023-07-30T08:36:39;100826.59;;;23.31
34125;BMP280;20110;53.120;5.786;2023-07-30T08:39:05;100819.50;;;23.38
34125;BMP280;20110;53.120;5.786;2023-07-30T08:41:31;100849.28;;;23.65
34125;BMP280;20110;53.120;5.786;2023-07-30T08:43:58;100834.53;;;23.68
34125;BMP280;20110;53.120;5.786;2023-07-30T08:46:24;100847.38;;;23.68
34125;BMP280;20110;53.120;5.786;2023-07-30T08:48:50;100818.59;;;23.47
34125;BMP280;20110;53.120;5.786;2023-07-30T08:51:17;100831.94;;;23.86
34125;BMP280;20110;53.120;5.786;2023-07-30T08:53:43;100802.78;;;23.71
34125;BMP280;20110;53.120;5.786;2023-07-30T08:56:10;100841.16;;;24.08
34125;BMP280;20110;53.120;5.786;2023-07-30T08:58:37;100839.16;;;24.40
34125;BMP280;20110;53.120;5.786;2023-07-30T09:01:09;100845.66;;;24.80
34125;BMP280;20110;53.120;5.786;2023-07-30T09:03:39;100850.56;;;25.33
34125;BMP280;20110;53.120;5.786;2023-07-30T09:06:06;100816.88;;;25.57
34125;BMP280;20110;53.120;5.786;2023-07-30T09:08:32;100780.84;;;25.75
34125;BMP280;20110;53.120;5.786;2023-07-30T09:11:11;100836.31;;;26.03
34125;BMP280;20110;53.120;5.786;2023-07-30T09:13:41;100851.59;;;26.12
34125;BMP280;20110;53.120;5.786;2023-07-30T09:16:14;100757.00;;;25.38
34125;BMP280;20110;53.120;5.786;2023-07-30T09:18:45;100855.19;;;25.99
34125;BMP280;20110;53.120;5.786;2023-07-30T09:21:13;100846.81;;;25.93
34125;BMP280;20110;53.120;5.786;2023-07-30T09:23:44;100854.97;;;25.75
34125;BMP280;20110;53.120;5.786;2023-07-30T09:26:11;100820.50;;;25.29
34125;BMP280;20110;53.120;5.786;2023-07-30T09:28:36;100853.88;;;25.82
34125;BMP280;20110;53.120;5.786;2023-07-30T09:31:07;100842.53;;;26.05
34125;BMP280;20110;53.120;5.786;2023-07-30T09:33:35;100865.91;;;26.50
34125;BMP280;20110;53.120;5.786;2023-07-30T09:36:08;100878.28;;;26.73
34125;BMP280;20110;53.120;5.786;2023-07-30T09:38:42;100883.31;;;26.80
34125;BMP280;20110;53.120;5.786;2023-07-30T09:41:08;100879.34;;;26.83
34125;BMP280;20110;53.120;5.786;2023-07-30T09:43:36;100848.25;;;26.90
34125;BMP280;20110;53.120;5.786;2023-07-30T09:46:05;100871.94;;;27.27
34125;BMP280;20110;53.120;5.786;2023-07-30T09:48:35;100895.72;;;27.05
34125;BMP280;20110;53.120;5.786;2023-07-30T09:51:03;100882.09;;;27.05
34125;BMP280;20110;53.120;5.786;2023-07-30T09:53:34;100886.09;;;27.02
34125;BMP280;20110;53.120;5.786;2023-07-30T09:56:04;100913.13;;;26.76
34125;BMP280;20110;53.120;5.786;2023-07-30T09:58:31;100868.25;;;26.20
34125;BMP280;20110;53.120;5.786;2023-07-30T10:01:03;100883.09;;;26.17
34125;BMP280;20110;53.120;5.786;2023-07-30T10:03:32;100862.59;;;26.34
34125;BMP280;20110;53.120;5.786;2023-07-30T10:06:05;100911.69;;;27.13
34125;BMP280;20110;53.120;5.786;2023-07-30T10:08:36;100911.91;;;27.62
34125;BMP280;20110;53.120;5.786;2023-07-30T10:11:07;100917.31;;;27.84
34125;BMP280;20110;53.120;5.786;2023-07-30T10:13:35;100907.84;;;27.63
34125;BMP280;20110;53.120;5.786;2023-07-30T10:16:02;100900.50;;;27.68
34125;BMP280;20110;53.120;5.786;2023-07-30T10:18:42;100917.97;;;27.82
34125;BMP280;20110;53.120;5.786;2023-07-30T10:21:11;100931.09;;;28.10
34125;BMP280;20110;53.120;5.786;2023-07-30T10:23:59;100890.16;;;28.35
34125;BMP280;20110;53.120;5.786;2023-07-30T10:26:28;100909.00;;;29.02
34125;BMP280;20110;53.120;5.786;2023-07-30T10:29:19;100906.00;;;29.18
34125;BMP280;20110;53.120;5.786;2023-07-30T10:31:54;100914.56;;;28.53
34125;BMP280;20110;53.120;5.786;2023-07-30T10:34:21;100934.44;;;28.81
34125;BMP280;20110;53.120;5.786;2023-07-30T10:36:51;100930.13;;;29.87
34125;BMP280;20110;53.120;5.786;2023-07-30T10:39:20;100931.72;;;30.68
34125;BMP280;20110;53.120;5.786;2023-07-30T10:41:54;100929.03;;;30.00
34125;BMP280;20110;53.120;5.786;2023-07-30T10:44:33;100934.53;;;29.11
34125;BMP280;20110;53.120;5.786;2023-07-30T10:47:01;100913.03;;;28.72
34125;BMP280;20110;53.120;5.786;2023-07-30T10:49:28;100941.44;;;29.14
34125;BMP280;20110;53.120;5.786;2023-07-30T10:51:56;100928.97;;;29.07
34125;BMP280;20110;53.120;5.786;2023-07-30T10:54:25;100843.66;;;27.84
34125;BMP280;20110;53.120;5.786;2023-07-30T10:56:51;100936.50;;;29.09
34125;BMP280;20110;53.120;5.786;2023-07-30T10:59:19;100923.56;;;29.11
34125;BMP280;20110;53.120;5.786;2023-07-30T11:01:45;100893.41;;;28.79
34125;BMP280;20110;53.120;5.786;2023-07-30T11:04:14;100956.38;;;29.67
34125;BMP280;20110;53.120;5.786;2023-07-30T11:06:50;100940.59;;;29.95
34125;BMP280;20110;53.120;5.786;2023-07-30T11:09:25;100938.69;;;29.42
34125;BMP280;20110;53.120;5.786;2023-07-30T11:11:54;100938.50;;;29.06
34125;BMP280;20110;53.120;5.786;2023-07-30T11:14:22;100940.28;;;28.70
34125;BMP280;20110;53.120;5.786;2023-07-30T11:19:19;100942.44;;;28.73
34125;BMP280;20110;53.120;5.786;2023-07-30T11:21:50;100962.44;;;28.80
34125;BMP280;20110;53.120;5.786;2023-07-30T11:24:16;100948.44;;;29.49
34125;BMP280;20110;53.120;5.786;2023-07-30T11:26:43;100945.25;;;29.59
34125;BMP280;20110;53.120;5.786;2023-07-30T11:29:19;100941.22;;;29.34
34125;BMP280;20110;53.120;5.786;2023-07-30T11:31:47;100967.34;;;29.11
34125;BMP280;20110;53.120;5.786;2023-07-30T11:34:14;100962.72;;;28.92
34125;BMP280;20110;53.120;5.786;2023-07-30T11:36:43;100970.34;;;29.21
34125;BMP280;20110;53.120;5.786;2023-07-30T11:39:11;100949.47;;;29.36
34125;BMP280;20110;53.120;5.786;2023-07-30T11:41:37;100987.97;;;29.16
34125;BMP280;20110;53.120;5.786;2023-07-30T11:44:04;100988.44;;;29.92
34125;BMP280;20110;53.120;5.786;2023-07-30T11:46:30;100980.75;;;30.52
34125;BMP280;20110;53.120;5.786;2023-07-30T11:49:16;100965.81;;;30.97
34125;BMP280;20110;53.120;5.786;2023-07-30T11:51:46;100959.38;;;31.24
34125;BMP280;20110;53.120;5.786;2023-07-30T11:54:25;100992.53;;;31.38
34125;BMP280;20110;53.120;5.786;2023-07-30T11:56:57;100967.69;;;31.28
34125;BMP280;20110;53.120;5.786;2023-07-30T11:59:23;100992.44;;;31.76
34125;BMP280;20110;53.120;5.786;2023-07-30T12:01:51;100988.50;;;31.93
34125;BMP280;20110;53.120;5.786;2023-07-30T12:04:16;100959.59;;;30.94
34125;BMP280;20110;53.120;5.786;2023-07-30T12:06:47;100940.03;;;31.14
34125;BMP280;20110;53.120;5.786;2023-07-30T12:09:20;100994.34;;;31.22
34125;BMP280;20110;53.120;5.786;2023-07-30T12:17:16;101016.97;;;31.20
34125;BMP280;20110;53.120;5.786;2023-07-30T12:19:42;100987.53;;;30.85
34125;BMP280;20110;53.120;5.786;2023-07-30T12:22:08;100992.97;;;30.45
34125;BMP280;20110;53.120;5.786;2023-07-30T12:24:34;100995.06;;;31.24
34125;BMP280;20110;53.120;5.786;2023-07-30T12:26:59;101012.16;;;30.83
34125;BMP280;20110;53.120;5.786;2023-07-30T12:29:26;101001.03;;;30.37
34125;BMP280;20110;53.120;5.786;2023-07-30T12:31:52;100962.47;;;30.27
34125;BMP280;20110;53.120;5.786;2023-07-30T12:34:19;101017.53;;;30.09
34125;BMP280;20110;53.120;5.786;2023-07-30T12:36:46;101010.16;;;29.84
34125;BMP280;20110;53.120;5.786;2023-07-30T12:39:12;101005.91;;;30.42
34125;BMP280;20110;53.120;5.786;2023-07-30T12:41:38;101014.69;;;30.71
34125;BMP280;20110;53.120;5.786;2023-07-30T12:44:04;101019.88;;;31.30
34125;BMP280;20110;53.120;5.786;2023-07-30T12:46:31;100997.88;;;31.28
34125;BMP280;20110;53.120;5.786;2023-07-30T12:48:58;100998.19;;;31.48
34125;BMP280;20110;53.120;5.786;2023-07-30T12:51:32;100969.00;;;31.23
34125;BMP280;20110;53.120;5.786;2023-07-30T12:53:58;100990.03;;;32.02
34125;BMP280;20110;53.120;5.786;2023-07-30T12:56:23;100986.97;;;32.36
34125;BMP280;20110;53.120;5.786;2023-07-30T12:58:49;101005.38;;;32.24
34125;BMP280;20110;53.120;5.786;2023-07-30T13:01:15;100921.34;;;31.48
34125;BMP280;20110;53.120;5.786;2023-07-30T13:03:41;101015.03;;;31.73
34125;BMP280;20110;53.120;5.786;2023-07-30T13:06:12;100959.91;;;31.59
34125;BMP280;20110;53.120;5.786;2023-07-30T13:08:41;101021.09;;;31.21
34125;BMP280;20110;53.120;5.786;2023-07-30T13:11:07;101015.19;;;31.37
34125;BMP280;20110;53.120;5.786;2023-07-30T13:13:33;100982.22;;;30.93
34125;BMP280;20110;53.120;5.786;2023-07-30T13:15:59;101017.50;;;31.13
34125;BMP280;20110;53.120;5.786;2023-07-30T13:18:27;101030.97;;;30.61
34125;BMP280;20110;53.120;5.786;2023-07-30T13:20:53;100988.25;;;30.49
34125;BMP280;20110;53.120;5.786;2023-07-30T13:23:19;101013.09;;;30.95
34125;BMP280;20110;53.120;5.786;2023-07-30T13:25:45;100987.88;;;30.31
34125;BMP280;20110;53.120;5.786;2023-07-30T13:28:11;101033.16;;;29.73
34125;BMP280;20110;53.120;5.786;2023-07-30T13:30:37;101018.25;;;28.96
34125;BMP280;20110;53.120;5.786;2023-07-30T13:33:02;100953.00;;;28.12
34125;BMP280;20110;53.120;5.786;2023-07-30T13:35:28;101021.34;;;28.61
34125;BMP280;20110;53.120;5.786;2023-07-30T13:37:54;100954.38;;;28.13
34125;BMP280;20110;53.120;5.786;2023-07-30T13:40:20;101021.56;;;28.69
34125;BMP280;20110;53.120;5.786;2023-07-30T13:42:46;100973.09;;;28.46
34125;BMP280;20110;53.120;5.786;2023-07-30T13:45:12;100885.75;;;27.77
34125;BMP280;20110;53.120;5.786;2023-07-30T13:47:37;101007.69;;;28.37
34125;BMP280;20110;53.120;5.786;2023-07-30T13:50:04;101014.81;;;28.25
34125;BMP280;20110;53.120;5.786;2023-07-30T13:52:30;100993.84;;;28.08
34125;BMP280;20110;53.120;5.786;2023-07-30T13:54:56;101021.88;;;28.32
34125;BMP280;20110;53.120;5.786;2023-07-30T13:57:24;101027.28;;;28.53
34125;BMP280;20110;53.120;5.786;2023-07-30T13:59:54;101017.69;;;28.76
34125;BMP280;20110;53.120;5.786;2023-07-30T14:02:20;100974.78;;;28.57